Time;durP1;ratioP1;P1;durP2;ratioP2;P2;SDS_P1;SDS_P2;PMS_P1;PMS_P2;Temp;Humidity;BMP_temperature;BMP_pressure;BME280_temperature;BME280_humidity;BME280_pressure;Samples;Min_cycle;Max_cycle;Signal;HPM_P1;HPM_P2
2021/06/06 00:01:42;;;;;;;4.30;0.93;;;17.10;72.30;;;;;;5085936;28;20036;-70
2021/06/06 00:04:14;;;;;;;1.60;0.70;;;17.20;72.60;;;;;;5068819;28;20041;-67
2021/06/06 00:06:40;;;;;;;2.72;1.00;;;17.20;72.80;;;;;;5068200;28;20033;-69
2021/06/06 00:09:08;;;;;;;1.63;0.80;;;17.20;72.90;;;;;;5068227;28;20081;-68
2021/06/06 00:11:37;;;;;;;1.67;0.82;;;17.20;72.60;;;;;;5068123;28;20092;-68
2021/06/06 00:14:05;;;;;;;1.27;0.90;;;17.20;72.70;;;;;;5087640;28;20078;-69
2021/06/06 00:16:37;;;;;;;1.77;0.90;;;17.30;72.80;;;;;;5085791;28;20055;-69
2021/06/06 00:19:03;;;;;;;1.33;0.80;;;17.20;72.70;;;;;;5068657;28;20052;-69
2021/06/06 00:21:29;;;;;;;1.75;0.85;;;17.10;72.90;;;;;;5085770;28;20036;-69
2021/06/06 00:23:55;;;;;;;1.58;0.68;;;17.10;72.90;;;;;;5067627;28;20065;-69
2021/06/06 00:26:21;;;;;;;3.58;1.05;;;17.10;73.00;;;;;;5067809;28;20043;-69
2021/06/06 00:28:46;;;;;;;1.40;0.80;;;17.10;72.90;;;;;;5087356;28;20029;-69
2021/06/06 00:31:12;;;;;;;1.92;0.80;;;17.20;72.80;;;;;;5085734;28;20082;-69
2021/06/06 00:33:38;;;;;;;2.45;0.70;;;17.20;72.90;;;;;;5085606;28;20035;-68
2021/06/06 00:36:05;;;;;;;3.72;0.90;;;17.10;72.80;;;;;;5067405;28;20044;-69
2021/06/06 00:38:30;;;;;;;3.38;0.85;;;17.20;73.10;;;;;;5085386;28;20036;-69
2021/06/06 00:40:57;;;;;;;2.00;0.77;;;17.10;73.00;;;;;;5087178;28;20078;-69
2021/06/06 00:43:23;;;;;;;1.35;0.80;;;17.10;73.30;;;;;;5085457;28;20040;-70
2021/06/06 00:45:48;;;;;;;1.42;0.85;;;17.10;73.40;;;;;;5067282;28;20278;-70
2021/06/06 00:48:15;;;;;;;1.63;0.80;;;17.10;73.40;;;;;;5084981;28;20033;-70
2021/06/06 00:50:44;;;;;;;1.90;0.90;;;17.10;73.30;;;;;;5067166;28;20033;-69
2021/06/06 00:53:13;;;;;;;2.67;0.90;;;17.10;73.30;;;;;;5086560;28;20029;-70
2021/06/06 00:55:39;;;;;;;2.40;0.90;;;17.10;73.30;;;;;;5067112;28;20060;-70
2021/06/06 00:58:07;;;;;;;1.40;0.90;;;17.20;73.40;;;;;;5067667;28;20044;-70
2021/06/06 01:00:35;;;;;;;3.00;1.00;;;17.20;73.40;;;;;;5066879;28;20039;-70
2021/06/06 01:03:01;;;;;;;1.67;0.90;;;17.20;73.20;;;;;;5066885;28;20028;-70
2021/06/06 01:05:29;;;;;;;2.05;1.00;;;17.20;73.40;;;;;;5084724;28;20039;-70
2021/06/06 01:07:55;;;;;;;2.47;0.90;;;17.20;73.30;;;;;;5086284;28;20029;-69
2021/06/06 01:10:20;;;;;;;1.80;1.00;;;17.20;73.00;;;;;;5067253;28;20086;-70
2021/06/06 01:12:48;;;;;;;2.58;0.90;;;17.20;73.30;;;;;;5085112;28;20098;-70
2021/06/06 01:15:21;;;;;;;3.10;1.10;;;17.10;73.40;;;;;;5066831;28;20043;-70
2021/06/06 01:17:51;;;;;;;2.45;1.08;;;17.10;73.20;;;;;;5066554;28;20045;-70
2021/06/06 01:20:38;;;;;;;1.87;0.90;;;17.20;73.20;;;;;;5066819;28;20074;-70
2021/06/06 01:23:37;;;;;;;1.45;1.00;;;17.20;73.40;;;;;;5086383;28;20347;-70
2021/06/06 01:26:07;;;;;;;3.08;0.80;;;17.30;73.20;;;;;;5084814;28;20024;-69
2021/06/06 01:28:41;;;;;;;1.75;1.00;;;17.20;73.40;;;;;;5050446;28;20037;-69
2021/06/06 01:31:07;;;;;;;2.85;1.00;;;17.20;73.30;;;;;;5084455;28;20045;-70
2021/06/06 01:33:46;;;;;;;2.65;0.95;;;17.10;73.20;;;;;;5084176;28;20388;-69
2021/06/06 01:36:16;;;;;;;4.40;1.30;;;17.20;73.40;;;;;;5049929;28;20033;-70
2021/06/06 01:38:48;;;;;;;2.03;1.02;;;17.20;73.20;;;;;;5066329;28;20047;-69
2021/06/06 01:41:15;;;;;;;3.40;0.80;;;17.20;73.30;;;;;;5068027;28;20032;-70
2021/06/06 01:43:45;;;;;;;1.40;0.90;;;17.20;73.30;;;;;;5066922;28;20043;-70
2021/06/06 01:46:16;;;;;;;1.63;1.05;;;17.20;73.30;;;;;;5066140;28;20106;-70
2021/06/06 01:48:42;;;;;;;2.03;1.10;;;17.30;73.10;;;;;;5066116;28;20331;-71
2021/06/06 01:51:11;;;;;;;1.60;1.10;;;17.20;73.20;;;;;;5066254;28;20040;-71
2021/06/06 01:53:37;;;;;;;0.82;0.70;;;17.30;73.00;;;;;;5083816;28;20036;-71
2021/06/06 01:56:05;;;;;;;2.85;0.80;;;17.30;73.10;;;;;;5067798;28;20024;-70
2021/06/06 01:58:30;;;;;;;1.27;0.80;;;17.20;73.20;;;;;;5066203;28;20058;-70
2021/06/06 02:00:59;;;;;;;1.67;0.95;;;17.30;73.30;;;;;;5065955;28;20029;-70
2021/06/06 02:03:24;;;;;;;1.30;0.95;;;17.20;73.10;;;;;;5065923;28;20227;-70
2021/06/06 02:05:50;;;;;;;1.40;0.90;;;17.20;73.10;;;;;;5066040;28;20028;-70
2021/06/06 02:08:17;;;;;;;2.55;0.90;;;17.30;73.10;;;;;;5065920;28;20036;-70
2021/06/06 02:11:09;;;;;;;2.30;1.00;;;17.20;73.00;;;;;;5067441;28;20037;-70
2021/06/06 02:13:42;;;;;;;1.90;1.00;;;17.30;73.00;;;;;;5067524;28;20051;-70
2021/06/06 02:16:08;;;;;;;1.88;0.90;;;17.20;72.90;;;;;;5065863;28;20036;-70
2021/06/06 02:18:34;;;;;;;3.03;1.10;;;17.30;73.10;;;;;;5048014;28;20346;-70
2021/06/06 02:20:59;;;;;;;2.78;0.85;;;17.20;73.10;;;;;;5065160;28;20043;-70
2021/06/06 02:23:28;;;;;;;1.38;0.93;;;17.20;73.00;;;;;;5065937;28;20112;-70
2021/06/06 02:26:18;;;;;;;2.40;1.15;;;17.30;72.90;;;;;;5067062;28;20056;-70
2021/06/06 02:29:08;;;;;;;2.90;0.90;;;17.20;72.90;;;;;;5066335;28;20040;-70
2021/06/06 02:31:41;;;;;;;3.10;0.88;;;17.20;73.60;;;;;;5065813;28;20086;-69
2021/06/06 02:34:20;;;;;;;1.40;1.00;;;17.20;73.40;;;;;;5065262;28;20032;-70
2021/06/06 02:36:59;;;;;;;2.47;0.85;;;17.10;73.50;;;;;;5065213;28;20299;-70
2021/06/06 02:39:27;;;;;;;2.80;1.50;;;17.20;73.20;;;;;;5066339;28;20032;-70
2021/06/06 02:42:13;;;;;;;2.05;0.88;;;17.20;73.10;;;;;;5065075;28;20039;-69
2021/06/06 02:44:43;;;;;;;1.70;0.90;;;17.30;72.90;;;;;;5048675;28;20036;-69
2021/06/06 02:47:10;;;;;;;1.25;0.77;;;17.20;73.00;;;;;;5084778;28;20095;-69
2021/06/06 02:49:38;;;;;;;1.50;1.00;;;17.10;73.30;;;;;;5065410;28;20096;-69
2021/06/06 02:52:05;;;;;;;1.60;0.90;;;17.10;73.50;;;;;;5065008;28;20036;-70
2021/06/06 02:54:44;;;;;;;2.78;0.95;;;17.20;73.60;;;;;;5064739;28;20044;-69
2021/06/06 02:57:11;;;;;;;1.83;0.90;;;17.10;73.50;;;;;;5049209;28;20063;-69
2021/06/06 02:59:49;;;;;;;2.13;1.00;;;17.20;73.50;;;;;;5064749;28;20040;-68
2021/06/06 03:02:17;;;;;;;3.20;0.90;;;17.20;73.40;;;;;;5064932;28;20020;-68
2021/06/06 03:04:48;;;;;;;2.28;0.90;;;17.20;73.30;;;;;;5066441;28;20091;-68
2021/06/06 03:07:22;;;;;;;1.80;1.00;;;17.20;73.30;;;;;;5065666;28;20041;-68
2021/06/06 03:09:47;;;;;;;2.00;0.90;;;17.20;73.30;;;;;;5048213;28;20035;-69
2021/06/06 03:12:13;;;;;;;2.65;1.02;;;17.20;73.40;;;;;;5048031;28;20036;-69
2021/06/06 03:14:41;;;;;;;2.45;1.00;;;17.20;73.30;;;;;;5064372;28;20433;-69
2021/06/06 03:17:28;;;;;;;2.33;0.90;;;17.20;73.30;;;;;;5082883;28;20052;-69
2021/06/06 03:19:55;;;;;;;2.25;0.93;;;17.20;73.30;;;;;;5055013;28;20039;-69
2021/06/06 03:22:29;;;;;;;2.15;1.50;;;17.20;73.50;;;;;;5064505;28;20040;-69
2021/06/06 03:25:00;;;;;;;2.00;0.93;;;17.20;73.40;;;;;;5082477;28;20054;-69
2021/06/06 03:27:27;;;;;;;1.35;0.93;;;17.20;73.50;;;;;;5064695;28;20103;-68
2021/06/06 03:29:52;;;;;;;1.90;1.00;;;17.20;73.50;;;;;;5082242;28;20053;-68
2021/06/06 03:32:19;;;;;;;2.03;0.90;;;17.20;73.40;;;;;;5082266;28;20078;-68
2021/06/06 03:34:45;;;;;;;1.92;1.00;;;17.20;73.60;;;;;;5066392;28;20112;-69
2021/06/06 03:37:10;;;;;;;1.02;0.85;;;17.20;73.40;;;;;;5082386;28;20032;-68
2021/06/06 03:39:36;;;;;;;1.15;0.80;;;17.10;73.70;;;;;;5082252;28;20067;-69
2021/06/06 03:42:01;;;;;;;1.42;0.80;;;17.20;73.70;;;;;;5082178;28;20036;-68
2021/06/06 03:44:27;;;;;;;2.05;0.90;;;17.20;73.40;;;;;;5082076;28;20025;-68
2021/06/06 03:46:53;;;;;;;2.15;0.90;;;17.30;73.50;;;;;;5084081;28;20087;-68
2021/06/06 03:49:19;;;;;;;5.50;1.27;;;17.20;73.50;;;;;;5082502;28;20227;-69
2021/06/06 03:51:45;;;;;;;1.63;1.00;;;17.20;73.60;;;;;;5081868;28;20056;-68
2021/06/06 03:54:11;;;;;;;1.77;0.80;;;17.30;73.50;;;;;;5082007;28;20343;-69
2021/06/06 03:56:40;;;;;;;1.88;0.90;;;17.10;73.50;;;;;;5082021;28;20025;-69
2021/06/06 03:59:06;;;;;;;4.35;1.02;;;17.20;73.40;;;;;;5049223;28;20029;-69
2021/06/06 04:01:32;;;;;;;2.08;1.00;;;17.20;73.70;;;;;;5082162;28;20079;-69
2021/06/06 04:03:57;;;;;;;3.10;1.27;;;17.10;73.70;;;;;;5082254;28;20043;-69
2021/06/06 04:06:23;;;;;;;2.75;1.02;;;17.20;73.70;;;;;;5081908;28;20032;-69
2021/06/06 04:08:49;;;;;;;1.35;0.98;;;17.10;73.80;;;;;;5064207;28;20032;-69
2021/06/06 04:11:15;;;;;;;2.20;0.90;;;17.20;73.70;;;;;;5082168;28;20077;-69
2021/06/06 04:13:41;;;;;;;1.98;0.90;;;17.10;73.60;;;;;;5083537;28;20243;-69
2021/06/06 04:16:06;;;;;;;3.72;0.98;;;17.20;73.80;;;;;;5082043;28;20216;-69
2021/06/06 04:18:32;;;;;;;2.65;0.80;;;17.20;73.80;;;;;;5081890;28;20048;-69
2021/06/06 04:21:02;;;;;;;1.60;1.00;;;17.20;73.90;;;;;;5081927;28;20052;-69
2021/06/06 04:23:28;;;;;;;2.15;0.70;;;17.20;73.80;;;;;;5081711;28;20056;-69
2021/06/06 04:25:54;;;;;;;3.42;0.90;;;17.20;73.60;;;;;;5066219;28;20040;-69
2021/06/06 04:28:21;;;;;;;1.08;0.82;;;17.10;73.80;;;;;;5064292;28;20037;-69
2021/06/06 04:30:46;;;;;;;1.00;0.70;;;17.20;73.90;;;;;;5081812;28;20324;-69
2021/06/06 04:33:12;;;;;;;3.85;1.05;;;17.20;73.90;;;;;;5063761;28;20024;-69
2021/06/06 04:35:39;;;;;;;1.85;1.00;;;17.20;73.80;;;;;;5081521;28;20033;-69
2021/06/06 04:38:05;;;;;;;1.50;0.95;;;17.10;73.90;;;;;;5065663;28;20319;-69
2021/06/06 04:40:30;;;;;;;1.42;0.80;;;17.20;74.20;;;;;;5064392;28;20106;-68
2021/06/06 04:42:56;;;;;;;1.27;0.70;;;17.20;73.90;;;;;;5084617;28;20032;-69
2021/06/06 04:45:21;;;;;;;2.47;0.80;;;17.10;74.00;;;;;;5085058;28;20224;-68
2021/06/06 04:47:47;;;;;;;3.95;0.90;;;17.20;74.00;;;;;;5084920;28;20033;-68
2021/06/06 04:50:13;;;;;;;3.05;0.90;;;17.20;74.10;;;;;;5087202;28;20084;-68
2021/06/06 04:52:38;;;;;;;2.80;0.90;;;17.20;74.00;;;;;;5084769;28;20029;-68
2021/06/06 04:55:15;;;;;;;2.45;0.90;;;17.20;74.00;;;;;;5034422;28;20094;-68
2021/06/06 04:57:40;;;;;;;1.85;0.80;;;17.30;74.10;;;;;;5084926;28;20040;-68
2021/06/06 05:00:17;;;;;;;1.40;0.90;;;17.30;74.10;;;;;;5084835;28;20369;-68
2021/06/06 05:02:43;;;;;;;2.97;1.00;;;17.20;74.10;;;;;;5084920;28;20029;-69
2021/06/06 05:05:09;;;;;;;1.63;0.90;;;17.30;74.20;;;;;;5068960;28;20029;-68
2021/06/06 05:07:34;;;;;;;2.03;0.90;;;17.30;74.20;;;;;;5084846;28;20040;-68
2021/06/06 05:10:01;;;;;;;2.97;0.90;;;17.30;74.50;;;;;;5084929;28;20103;-68
2021/06/06 05:12:26;;;;;;;0.80;0.60;;;17.30;74.10;;;;;;5067051;28;20043;-68
2021/06/06 05:14:52;;;;;;;2.55;1.00;;;17.30;74.20;;;;;;5066940;28;20040;-68
2021/06/06 05:17:18;;;;;;;4.18;0.95;;;17.30;74.30;;;;;;5084313;28;20051;-68
2021/06/06 05:19:43;;;;;;;1.80;0.85;;;17.30;74.30;;;;;;5068581;28;20223;-68
2021/06/06 05:22:09;;;;;;;1.63;0.88;;;17.30;74.30;;;;;;5084604;28;20032;-68
2021/06/06 05:24:34;;;;;;;2.10;0.85;;;17.30;74.40;;;;;;5067235;28;20037;-68
2021/06/06 05:27:00;;;;;;;1.58;0.80;;;17.30;74.30;;;;;;5084432;28;20055;-68
2021/06/06 05:29:25;;;;;;;0.95;0.75;;;17.30;74.20;;;;;;5084287;28;20068;-68
2021/06/06 05:31:51;;;;;;;1.60;0.75;;;17.30;74.40;;;;;;5068481;28;20024;-69
2021/06/06 05:34:17;;;;;;;1.35;0.70;;;17.30;74.30;;;;;;5066444;28;20028;-68
2021/06/06 05:36:42;;;;;;;1.80;0.82;;;17.30;74.20;;;;;;5084547;28;20071;-69
2021/06/06 05:39:08;;;;;;;2.35;0.93;;;17.40;74.20;;;;;;5083977;28;20339;-69
2021/06/06 05:41:33;;;;;;;2.45;1.00;;;17.30;74.30;;;;;;5083942;28;20064;-69
2021/06/06 05:43:59;;;;;;;2.47;0.73;;;17.30;74.40;;;;;;5085611;28;20070;-69
2021/06/06 05:46:25;;;;;;;1.98;0.70;;;17.30;74.40;;;;;;5049500;28;20037;-68
2021/06/06 05:48:50;;;;;;;1.60;0.77;;;17.30;74.40;;;;;;5083877;28;20040;-69
2021/06/06 05:51:16;;;;;;;2.35;0.90;;;17.30;72.80;;;;;;5066101;28;20036;-68
2021/06/06 05:53:41;;;;;;;2.45;0.90;;;17.30;72.80;;;;;;5083832;28;20079;-68
2021/06/06 05:56:09;;;;;;;1.67;0.80;;;17.40;72.80;;;;;;5085427;28;20032;-68
2021/06/06 05:58:35;;;;;;;2.40;0.70;;;17.30;72.70;;;;;;5084119;28;20079;-68
2021/06/06 06:01:01;;;;;;;4.50;0.80;;;17.30;72.70;;;;;;5084082;28;20036;-68
2021/06/06 06:03:26;;;;;;;1.58;0.70;;;17.30;72.70;;;;;;5083536;28;20096;-68
2021/06/06 06:05:54;;;;;;;2.30;0.88;;;17.30;72.90;;;;;;5066312;28;20024;-68
2021/06/06 06:08:30;;;;;;;1.08;0.68;;;17.30;72.80;;;;;;5083468;28;20032;-69
2021/06/06 06:10:56;;;;;;;3.00;0.90;;;17.30;72.70;;;;;;5085251;28;20032;-69
2021/06/06 06:13:24;;;;;;;1.52;0.80;;;17.30;73.20;;;;;;5083814;28;20323;-69
2021/06/06 06:15:49;;;;;;;2.33;0.80;;;17.40;73.00;;;;;;5083215;28;20040;-68
2021/06/06 06:18:22;;;;;;;2.50;0.80;;;17.30;73.00;;;;;;5082945;28;20055;-68
2021/06/06 06:20:48;;;;;;;1.52;0.80;;;17.40;73.10;;;;;;5065384;28;20035;-69
2021/06/06 06:23:14;;;;;;;1.90;0.77;;;17.40;73.00;;;;;;5065776;28;20024;-69
2021/06/06 06:25:40;;;;;;;1.70;0.77;;;17.40;72.90;;;;;;5066702;28;20040;-69
2021/06/06 06:28:05;;;;;;;2.03;0.88;;;17.40;73.20;;;;;;5083485;28;20079;-69
2021/06/06 06:30:32;;;;;;;4.15;1.15;;;17.40;72.90;;;;;;5083053;28;20336;-69
2021/06/06 06:32:59;;;;;;;2.55;0.80;;;17.40;72.80;;;;;;5065620;28;20039;-69
2021/06/06 06:35:26;;;;;;;1.67;0.65;;;17.30;72.70;;;;;;5065718;28;20301;-69
2021/06/06 06:37:51;;;;;;;0.82;0.70;;;17.30;72.90;;;;;;5084826;28;20036;-69
2021/06/06 06:40:17;;;;;;;1.00;0.65;;;17.30;73.00;;;;;;5083152;28;20039;-70
2021/06/06 06:42:43;;;;;;;2.80;0.82;;;17.30;73.10;;;;;;5083086;28;20032;-73
2021/06/06 06:45:11;;;;;;;2.22;0.70;;;17.40;73.00;;;;;;5065243;28;20066;-72
2021/06/06 06:47:37;;;;;;;1.65;0.60;;;17.40;73.00;;;;;;5082657;28;20189;-68
2021/06/06 06:50:07;;;;;;;0.73;0.63;;;17.30;73.00;;;;;;5084712;28;20016;-69
2021/06/06 06:52:36;;;;;;;1.45;0.85;;;17.40;73.10;;;;;;5082644;28;20100;-68
2021/06/06 06:55:06;;;;;;;1.13;0.70;;;17.40;72.90;;;;;;5082818;28;20028;-69
2021/06/06 06:57:32;;;;;;;1.02;0.70;;;17.40;73.20;;;;;;5064892;28;20032;-68
2021/06/06 06:59:57;;;;;;;1.48;0.85;;;17.40;73.40;;;;;;5082619;28;20032;-68
2021/06/06 07:02:23;;;;;;;1.73;1.17;;;17.40;73.20;;;;;;5082824;28;20073;-67
2021/06/06 07:04:48;;;;;;;1.73;0.75;;;17.50;73.20;;;;;;5083772;28;20077;-67
2021/06/06 07:07:14;;;;;;;2.25;0.93;;;17.40;73.50;;;;;;5065269;28;20198;-65
2021/06/06 07:09:39;;;;;;;0.90;0.70;;;17.40;73.90;;;;;;5082701;28;20051;-66
2021/06/06 07:12:05;;;;;;;1.50;0.70;;;17.40;73.90;;;;;;5082484;28;20032;-67
2021/06/06 07:14:31;;;;;;;0.98;0.65;;;17.50;73.50;;;;;;5082383;28;20024;-68
2021/06/06 07:16:56;;;;;;;1.45;0.63;;;17.60;73.60;;;;;;5083987;28;20068;-70
2021/06/06 07:19:22;;;;;;;1.05;0.73;;;17.60;73.60;;;;;;5082804;28;20315;-68
2021/06/06 07:21:47;;;;;;;1.85;0.60;;;17.60;73.70;;;;;;5082361;28;20095;-68
2021/06/06 07:24:13;;;;;;;1.50;0.88;;;17.50;73.70;;;;;;5082477;28;20040;-69
2021/06/06 07:26:41;;;;;;;1.85;0.63;;;17.60;73.80;;;;;;5064757;28;20216;-69
2021/06/06 07:29:09;;;;;;;1.55;0.80;;;17.60;73.80;;;;;;5084266;28;20350;-66
2021/06/06 07:31:35;;;;;;;1.20;0.70;;;17.50;73.80;;;;;;5082575;28;20041;-69
2021/06/06 07:34:01;;;;;;;1.38;0.70;;;17.60;73.70;;;;;;5064234;28;20032;-68
2021/06/06 07:36:26;;;;;;;1.63;0.60;;;17.60;73.60;;;;;;5064478;28;20287;-68
2021/06/06 07:38:52;;;;;;;1.00;0.65;;;17.60;73.70;;;;;;5064462;28;20048;-67
2021/06/06 07:41:18;;;;;;;1.73;0.80;;;17.60;74.00;;;;;;5082855;28;20047;-68
2021/06/06 07:43:44;;;;;;;1.77;1.20;;;17.60;74.00;;;;;;5084067;28;20208;-68
2021/06/06 07:46:10;;;;;;;3.08;0.80;;;17.70;74.00;;;;;;5082533;28;20029;-69
2021/06/06 07:48:35;;;;;;;1.40;0.60;;;17.70;73.90;;;;;;5082165;28;20051;-69
2021/06/06 07:51:01;;;;;;;1.25;0.60;;;17.70;74.00;;;;;;5064163;28;20046;-69
2021/06/06 07:53:26;;;;;;;1.02;0.55;;;17.70;74.10;;;;;;5064054;28;20058;-68
2021/06/06 07:55:53;;;;;;;1.95;0.75;;;17.80;74.00;;;;;;5065826;28;20033;-69
2021/06/06 07:58:23;;;;;;;1.42;0.80;;;17.70;73.90;;;;;;5082003;28;20041;-67
2021/06/06 08:00:49;;;;;;;0.93;0.63;;;17.60;74.30;;;;;;5064236;28;20094;-69
2021/06/06 08:03:15;;;;;;;1.40;0.70;;;17.70;74.10;;;;;;5081700;28;20029;-72
2021/06/06 08:05:40;;;;;;;1.58;0.70;;;17.70;74.10;;;;;;5047556;28;20074;-69
2021/06/06 08:08:06;;;;;;;1.45;0.77;;;17.70;73.90;;;;;;5049390;28;20249;-69
2021/06/06 08:10:33;;;;;;;2.40;1.10;;;17.70;74.10;;;;;;5064151;28;20036;-69
2021/06/06 08:12:58;;;;;;;4.35;1.38;;;17.70;73.90;;;;;;5047924;28;20231;-69
2021/06/06 08:15:24;;;;;;;3.00;0.93;;;17.60;74.10;;;;;;5064184;28;20082;-68
2021/06/06 08:17:50;;;;;;;2.33;1.10;;;17.60;74.30;;;;;;5063642;28;20048;-68
2021/06/06 08:20:19;;;;;;;1.58;0.90;;;17.70;74.30;;;;;;5064827;28;20111;-69
2021/06/06 08:22:45;;;;;;;3.25;1.52;;;17.80;74.10;;;;;;5067479;28;20028;-69
2021/06/06 08:25:12;;;;;;;0.77;0.60;;;17.70;74.20;;;;;;5047808;28;20029;-70
2021/06/06 08:27:38;;;;;;;2.03;0.70;;;17.70;74.40;;;;;;5064639;28;20033;-69
2021/06/06 08:30:26;;;;;;;1.08;0.80;;;17.80;74.40;;;;;;5064165;28;20029;-69
2021/06/06 08:32:51;;;;;;;1.00;0.80;;;17.90;74.20;;;;;;5064546;28;20385;-68
2021/06/06 08:35:17;;;;;;;1.33;0.70;;;17.80;74.10;;;;;;5065150;28;20088;-70
2021/06/06 08:37:43;;;;;;;1.10;0.80;;;17.90;73.90;;;;;;5066761;28;20029;-70
2021/06/06 08:40:10;;;;;;;2.72;0.70;;;17.90;74.00;;;;;;5063991;28;20029;-71
2021/06/06 08:42:39;;;;;;;1.40;0.70;;;18.00;73.70;;;;;;5063929;28;20033;-69
2021/06/06 08:45:08;;;;;;;2.35;0.68;;;18.10;73.70;;;;;;5064224;28;20244;-70
2021/06/06 08:47:33;;;;;;;2.40;0.70;;;18.00;73.40;;;;;;5065177;28;20316;-69
2021/06/06 08:50:01;;;;;;;2.80;0.90;;;18.00;73.50;;;;;;5065949;28;20039;-69
2021/06/06 08:53:05;;;;;;;1.73;0.88;;;18.10;73.70;;;;;;5047376;28;20092;-69
2021/06/06 08:55:32;;;;;;;4.25;1.75;;;18.20;73.80;;;;;;5064148;28;20243;-74
2021/06/06 08:58:11;;;;;;;2.28;1.27;;;18.20;73.80;;;;;;5063827;28;20033;-69
2021/06/06 09:00:38;;;;;;;1.58;1.00;;;18.30;74.10;;;;;;5063863;28;20041;-69
2021/06/06 09:03:15;;;;;;;1.50;1.08;;;18.30;74.00;;;;;;5063717;28;20029;-69
2021/06/06 09:05:42;;;;;;;1.30;1.05;;;18.30;73.50;;;;;;5063728;28;20028;-69
2021/06/06 09:08:13;;;;;;;2.50;0.73;;;18.30;73.50;;;;;;5065290;28;20255;-72
2021/06/06 09:10:43;;;;;;;1.23;0.63;;;18.30;73.10;;;;;;5063423;28;20036;-71
2021/06/06 09:13:09;;;;;;;2.42;0.77;;;18.30;73.10;;;;;;5063351;28;20048;-70
2021/06/06 09:15:35;;;;;;;1.55;0.70;;;18.30;73.40;;;;;;5063557;28;20043;-70
2021/06/06 09:18:14;;;;;;;1.98;0.88;;;18.30;73.50;;;;;;5082029;28;20044;-72
2021/06/06 09:20:41;;;;;;;1.13;0.70;;;18.30;73.40;;;;;;5068881;28;20059;-69
2021/06/06 09:23:15;;;;;;;1.58;0.70;;;18.20;73.10;;;;;;5085102;28;20223;-70
2021/06/06 09:25:43;;;;;;;3.97;0.70;;;18.20;73.30;;;;;;5085300;28;20099;-71
2021/06/06 09:28:11;;;;;;;2.05;0.80;;;18.10;73.00;;;;;;5066538;28;20029;-70
2021/06/06 09:30:36;;;;;;;0.95;0.70;;;18.20;73.40;;;;;;5084451;28;20037;-71
2021/06/06 09:33:13;;;;;;;1.75;0.80;;;18.20;73.40;;;;;;5066782;28;20090;-69
2021/06/06 09:35:54;;;;;;;1.90;0.80;;;18.30;73.40;;;;;;5066507;28;20181;-70
2021/06/06 09:38:30;;;;;;;1.42;0.85;;;18.30;73.20;;;;;;5066148;28;20032;-71
2021/06/06 09:40:56;;;;;;;2.35;1.00;;;18.30;73.40;;;;;;5068882;28;20020;-70
2021/06/06 09:43:27;;;;;;;1.20;0.65;;;18.30;74.10;;;;;;5066302;28;20032;-71
2021/06/06 09:46:12;;;;;;;2.50;0.80;;;18.30;74.10;;;;;;5066646;28;20032;-71
2021/06/06 09:48:42;;;;;;;1.15;0.65;;;18.40;73.80;;;;;;5084120;28;20048;-72
2021/06/06 09:51:29;;;;;;;1.63;0.60;;;18.50;73.40;;;;;;5083857;28;20056;-71
2021/06/06 09:53:59;;;;;;;2.83;0.80;;;18.50;73.40;;;;;;5065990;28;20271;-71
2021/06/06 09:56:27;;;;;;;1.50;0.80;;;18.50;72.60;;;;;;5066470;28;20032;-70
2021/06/06 09:58:53;;;;;;;2.33;0.80;;;18.50;73.30;;;;;;5067872;28;20033;-71
2021/06/06 10:01:33;;;;;;;1.45;0.68;;;18.40;73.60;;;;;;5084016;28;20058;-73
2021/06/06 10:04:00;;;;;;;3.10;0.90;;;18.40;73.50;;;;;;5065981;28;20036;-71
2021/06/06 10:06:26;;;;;;;1.77;0.90;;;18.40;73.20;;;;;;5065950;28;20350;-71
2021/06/06 10:09:10;;;;;;;1.70;1.00;;;18.50;73.30;;;;;;5083318;28;20032;-71
2021/06/06 10:11:54;;;;;;;1.85;0.90;;;18.50;72.80;;;;;;5083334;28;20058;-73
2021/06/06 10:14:24;;;;;;;0.90;0.70;;;18.50;73.00;;;;;;5065965;28;20052;-71
2021/06/06 10:16:50;;;;;;;3.35;1.00;;;18.50;73.10;;;;;;5067792;28;20040;-70
2021/06/06 10:19:22;;;;;;;1.83;0.90;;;18.50;72.40;;;;;;5083695;28;20049;-69
2021/06/06 10:21:47;;;;;;;3.08;0.88;;;18.50;72.30;;;;;;5065941;28;20048;-71
2021/06/06 10:24:17;;;;;;;0.75;0.57;;;18.50;72.70;;;;;;5065484;28;20082;-66
2021/06/06 10:26:56;;;;;;;0.98;0.60;;;18.40;72.70;;;;;;5065351;28;20099;-69
2021/06/06 10:29:45;;;;;;;2.55;0.80;;;18.40;73.30;;;;;;5083062;28;20055;-68
2021/06/06 10:32:36;;;;;;;1.50;0.82;;;18.60;73.10;;;;;;5068908;28;20303;-68
2021/06/06 10:35:14;;;;;;;1.92;0.70;;;18.50;73.40;;;;;;5083391;28;20043;-68
2021/06/06 10:37:41;;;;;;;2.28;0.80;;;18.60;73.70;;;;;;5083905;28;20361;-69
2021/06/06 10:40:09;;;;;;;2.35;0.90;;;18.60;72.90;;;;;;5082589;28;20316;-69
2021/06/06 10:42:48;;;;;;;5.05;1.38;;;18.60;73.30;;;;;;5065347;28;20025;-68
2021/06/06 10:45:33;;;;;;;11.60;8.23;;;18.70;72.80;;;;;;5065205;28;20021;-70
2021/06/06 10:48:06;;;;;;;6.35;1.67;;;18.80;72.90;;;;;;5065270;28;20319;-70
2021/06/06 10:50:50;;;;;;;6.28;4.35;;;18.80;73.10;;;;;;5064919;28;20047;-67
2021/06/06 10:53:19;;;;;;;7.65;5.25;;;18.80;72.70;;;;;;5065253;28;20043;-68
2021/06/06 10:56:04;;;;;;;6.00;5.40;;;18.80;73.00;;;;;;5084488;28;20035;-69
2021/06/06 10:58:44;;;;;;;5.95;3.35;;;18.80;72.30;;;;;;5083078;28;20074;-71
2021/06/06 11:01:19;;;;;;;4.70;2.53;;;18.80;72.10;;;;;;5048265;28;20227;-72
2021/06/06 11:03:46;;;;;;;6.20;5.57;;;18.80;72.00;;;;;;5082752;28;20267;-68
2021/06/06 11:06:27;;;;;;;4.70;3.60;;;18.80;71.90;;;;;;5082476;28;20227;-69
2021/06/06 11:08:52;;;;;;;1.77;1.00;;;18.80;72.20;;;;;;5082462;28;20032;-69
2021/06/06 11:11:29;;;;;;;1.23;0.80;;;18.70;72.10;;;;;;5082866;28;20062;-68
2021/06/06 11:13:56;;;;;;;3.42;1.00;;;18.70;72.20;;;;;;5084351;28;20025;-71
2021/06/06 11:16:36;;;;;;;2.03;1.08;;;18.70;72.70;;;;;;5064744;28;20040;-70
2021/06/06 11:19:12;;;;;;;1.60;1.08;;;18.80;72.60;;;;;;5082359;28;20047;-70
2021/06/06 11:21:42;;;;;;;6.72;6.03;;;18.80;72.50;;;;;;5064678;28;20040;-75
2021/06/06 11:24:21;;;;;;;11.38;7.72;;;18.80;72.50;;;;;;5064975;28;20037;-72
2021/06/06 11:27:02;;;;;;;3.03;2.20;;;18.90;72.00;;;;;;5064382;28;20037;-74
2021/06/06 11:29:52;;;;;;;1.60;1.05;;;18.80;72.40;;;;;;5064516;28;20095;-71
2021/06/06 11:32:23;;;;;;;1.90;1.17;;;18.80;72.70;;;;;;5064805;28;20033;-68
2021/06/06 11:35:38;;;;;;;2.95;0.93;;;18.80;72.60;;;;;;5066691;28;20048;-69
2021/06/06 11:38:27;;;;;;;2.10;1.00;;;18.80;73.00;;;;;;5054716;28;20056;-69
2021/06/06 11:41:12;;;;;;;2.50;0.82;;;18.80;72.40;;;;;;5065483;28;20025;-68
2021/06/06 11:43:48;;;;;;;1.00;0.70;;;18.90;72.40;;;;;;5081966;28;20033;-69
2021/06/06 11:46:16;;;;;;;2.47;0.88;;;18.80;72.10;;;;;;5064920;28;20028;-69
2021/06/06 11:48:51;;;;;;;1.73;0.70;;;18.90;72.80;;;;;;5064251;28;20029;-68
2021/06/06 11:51:27;;;;;;;11.05;4.97;;;19.10;72.60;;;;;;5068895;28;20077;-69
2021/06/06 11:53:52;;;;;;;2.08;0.90;;;19.10;72.50;;;;;;5068375;28;20028;-68
2021/06/06 11:56:35;;;;;;;2.25;0.80;;;19.10;72.30;;;;;;5068814;28;20186;-68
2021/06/06 11:59:19;;;;;;;2.97;1.25;;;19.20;72.30;;;;;;5070155;28;20253;-69
2021/06/06 12:01:57;;;;;;;1.33;0.80;;;19.20;72.70;;;;;;5086118;28;20328;-70
2021/06/06 12:04:28;;;;;;;2.53;0.65;;;19.30;72.50;;;;;;5086179;28;20227;-71
2021/06/06 12:06:54;;;;;;;5.75;1.55;;;19.30;72.30;;;;;;5085834;28;20056;-70
2021/06/06 12:09:25;;;;;;;1.33;0.90;;;19.30;72.00;;;;;;5067932;28;20120;-69
2021/06/06 12:12:04;;;;;;;2.17;0.70;;;19.40;71.90;;;;;;5068921;28;20025;-69
2021/06/06 12:14:30;;;;;;;1.65;0.60;;;19.50;71.60;;;;;;5067975;28;20032;-69
2021/06/06 12:16:56;;;;;;;1.20;0.75;;;19.50;71.80;;;;;;5087234;28;20040;-68
2021/06/06 12:19:34;;;;;;;1.35;1.02;;;19.60;72.10;;;;;;5085915;28;20040;-69
2021/06/06 12:22:19;;;;;;;2.70;0.77;;;19.60;71.90;;;;;;5067761;28;20311;-69
2021/06/06 12:25:07;;;;;;;2.90;0.70;;;19.70;71.40;;;;;;5085973;28;20040;-68
2021/06/06 12:27:33;;;;;;;2.22;0.75;;;19.80;71.30;;;;;;5085583;28;20341;-69
2021/06/06 12:30:03;;;;;;;1.17;0.80;;;19.90;72.70;;;;;;5068228;28;20358;-68
2021/06/06 12:32:33;;;;;;;1.92;0.77;;;20.00;72.30;;;;;;5034337;28;20051;-69
2021/06/06 12:35:10;;;;;;;1.02;0.60;;;20.00;72.40;;;;;;5069537;28;20028;-69
2021/06/06 12:37:36;;;;;;;2.10;0.90;;;19.90;70.20;;;;;;5068728;28;20047;-68
2021/06/06 12:40:02;;;;;;;1.20;0.65;;;20.10;71.10;;;;;;5067909;28;20033;-68
2021/06/06 12:42:28;;;;;;;2.90;0.77;;;20.00;70.60;;;;;;5067311;28;20032;-68
2021/06/06 12:44:55;;;;;;;0.90;0.70;;;19.90;70.50;;;;;;5067488;28;20126;-68
2021/06/06 12:47:34;;;;;;;1.25;0.60;;;19.80;70.90;;;;;;5067414;28;20087;-68
2021/06/06 12:50:14;;;;;;;1.48;0.90;;;19.80;70.90;;;;;;5069713;28;20032;-69
2021/06/06 12:52:51;;;;;;;0.98;0.70;;;19.80;70.50;;;;;;5085795;28;20059;-71
2021/06/06 12:55:24;;;;;;;1.65;0.70;;;19.80;70.30;;;;;;5066969;28;20044;-71
2021/06/06 12:57:54;;;;;;;1.05;0.65;;;19.80;69.90;;;;;;5085116;28;20082;-71
2021/06/06 13:00:34;;;;;;;0.70;0.60;;;19.80;69.40;;;;;;5084724;28;20330;-71